STS Pogoria — SQKY — position and weather

sailwx.info

Track history (hours):
 
Tides and Currents Weather Stations Pressure Air Temp Water Temp Dewpoint Dewpoint Depression Visibility Wind Speed Wind Dir Waves Ship Positions

STS Pogoria

Last reported at 2019-Aug-24 06:29 UTC. Time now 2019-Aug-24 06:44 UTC.
Position N 54°31' E 018°33'.

Length 47 m.

Type: Sailing vessel. MMSI: 261146000.

Date/timePositionNaut miles runAvg speedWind from/ knotsBaromVisibWave heightAir tempDewpointWater temp
2019-Aug-24 06:29N 54°31' E 018°33'0 0.0
2019-Aug-24 05:59N 54°31' E 018°33'0 0.0
2019-Aug-24 05:29N 54°31' E 018°33'0 0.0
2019-Aug-24 04:59N 54°31' E 018°33'1 1.6
2019-Aug-24 04:30N 54°31' E 018°34'0 0.7
2019-Aug-24 03:56N 54°31' E 018°35'0 0.0
2019-Aug-24 03:29N 54°31' E 018°35'0 0.0
2019-Aug-24 02:59N 54°31' E 018°35'0 0.0
2019-Aug-24 02:29N 54°31' E 018°35'0 0.0
2019-Aug-24 01:59N 54°31' E 018°35'0 0.0
2019-Aug-24 01:29N 54°31' E 018°35'0 0.0
2019-Aug-24 00:59N 54°31' E 018°35'0 0.0
2019-Aug-24 00:29N 54°31' E 018°35'0 0.0
2019-Aug-23 23:59N 54°31' E 018°35'0 0.0
2019-Aug-23 23:29N 54°31' E 018°35'2 3.7
2019-Aug-23 23:00N 54°32' E 018°38'3 5.6
2019-Aug-23 22:30N 54°33' E 018°42'3 5.9
2019-Aug-23 22:00N 54°33' E 018°47'3 5.6
2019-Aug-23 21:30N 54°35' E 018°51'3 5.2
2019-Aug-23 21:00N 54°37' E 018°53'3 5.3
2019-Aug-23 20:30N 54°39' E 018°51'3 5.2
2019-Aug-23 20:00N 54°42' E 018°48'3 5.2
2019-Aug-23 19:30N 54°44' E 018°46'2 4.8
2019-Aug-23 19:00N 54°46' E 018°43'2 4.2
2019-Aug-23 18:30N 54°47' E 018°41'2 4.1
2019-Aug-23 18:00N 54°49' E 018°39'2 4.1
2019-Aug-23 17:30N 54°51' E 018°37'2 4.3
2019-Aug-23 17:00N 54°52' E 018°34'2 5.0
2019-Aug-23 16:30N 54°54' E 018°31'0 0.8
2019-Aug-23 15:59N 54°54' E 018°30'0 0.7
2019-Aug-23 15:29N 54°54' E 018°31'1 1.6
2019-Aug-23 14:59N 54°55' E 018°32'1 1.9
2019-Aug-23 14:30N 54°55' E 018°33'1 2.1
2019-Aug-23 13:59N 54°56' E 018°35'3 2.6
2019-Aug-23 12:43N 54°58' E 018°39'1 3.1
2019-Aug-23 12:28N 54°59' E 018°40'2 3.3
2019-Aug-23 12:00N 54°60' E 018°42'2 3.3
2019-Aug-23 11:30N 55°01' E 018°44'2 3.4
2019-Aug-23 11:00N 55°02' E 018°47'2 3.2
2019-Aug-23 10:27N 55°02' E 018°50'87 4.6
2019-Aug-22 15:19N 55°44' E 021°05'2 5.5
2019-Aug-22 15:00N 55°43' E 021°07'0 0.6
2019-Aug-22 14:29N 55°42' E 021°07'0 0.0
2019-Aug-22 13:59N 55°42' E 021°07'0 0.0
2019-Aug-22 13:29N 55°42' E 021°07'0 0.0
2019-Aug-22 12:59N 55°42' E 021°07'0 0.0
2019-Aug-22 12:29N 55°42' E 021°07'0 0.0
2019-Aug-22 11:59N 55°42' E 021°07'0 0.0
2019-Aug-22 11:29N 55°42' E 021°07'0 0.0
2019-Aug-22 10:56N 55°42' E 021°07'0 0.0
2019-Aug-22 10:29N 55°42' E 021°07'0 0.0
2019-Aug-22 09:59N 55°42' E 021°07'0 0.0
2019-Aug-22 09:29N 55°42' E 021°07'0 0.0
2019-Aug-22 08:59N 55°42' E 021°07'0 0.0
2019-Aug-22 08:29N 55°42' E 021°07'0 0.0
2019-Aug-22 07:59N 55°42' E 021°07'0 0.0
2019-Aug-22 07:29N 55°42' E 021°07'0 0.0
2019-Aug-22 06:59N 55°42' E 021°07'0 0.0
2019-Aug-22 06:29N 55°42' E 021°07'0 0.0
2019-Aug-22 05:59N 55°42' E 021°07'0 0.0
2019-Aug-22 05:29N 55°42' E 021°07'0 0.0
2019-Aug-22 04:59N 55°42' E 021°07'0 0.0
2019-Aug-22 04:29N 55°42' E 021°07'0 0.0
2019-Aug-22 03:59N 55°42' E 021°07'0 0.0
2019-Aug-22 03:29N 55°42' E 021°07'0 0.0
2019-Aug-22 02:53N 55°42' E 021°07'0 0.0
2019-Aug-22 02:29N 55°42' E 021°07'0 0.0
2019-Aug-22 01:59N 55°42' E 021°07'0 0.0
2019-Aug-22 01:29N 55°42' E 021°07'0 0.0
2019-Aug-22 00:59N 55°42' E 021°07'0 0.0
2019-Aug-22 00:29N 55°42' E 021°07'0 0.0
2019-Aug-21 23:56N 55°42' E 021°07'0 0.0
2019-Aug-21 23:26N 55°42' E 021°07'0 0.0
2019-Aug-21 22:59N 55°42' E 021°07'0 0.0
2019-Aug-21 22:29N 55°42' E 021°07'0 0.0
2019-Aug-21 21:59N 55°42' E 021°07'0 0.0
2019-Aug-21 21:29N 55°42' E 021°07'0 0.0
2019-Aug-21 20:59N 55°42' E 021°07'0 0.0
2019-Aug-21 20:29N 55°42' E 021°07'0 0.0
2019-Aug-21 19:59N 55°42' E 021°07'0 0.0
2019-Aug-21 19:29N 55°42' E 021°07'0 0.0
2019-Aug-21 18:59N 55°42' E 021°07'0 0.0
2019-Aug-21 18:29N 55°42' E 021°07'0 0.0
2019-Aug-21 17:59N 55°42' E 021°07'0 0.0
2019-Aug-21 17:20N 55°42' E 021°07'0 0.0
2019-Aug-21 16:59N 55°42' E 021°07'0 0.0
2019-Aug-21 16:29N 55°42' E 021°07'0 0.0
2019-Aug-21 15:58N 55°42' E 021°07'0 0.0
2019-Aug-21 15:28N 55°42' E 021°07'2 2.8
2019-Aug-21 14:56N 55°43' E 021°06'3 6.3
2019-Aug-21 14:30N 55°44' E 021°01'  
Track history (hours):
 
Tides and Currents Weather Stations Pressure Air Temp Water Temp Dewpoint Dewpoint Depression Visibility Wind Speed Wind Dir Waves Ship Positions

STS Pogoria

Last reported at 2019-Aug-24 06:29 UTC. Time now 2019-Aug-24 06:44 UTC.
Position N 54°31' E 018°33'.

Length 47 m.

Type: Sailing vessel. MMSI: 261146000.

Date/timePositionNaut miles runAvg speedWind from/ knotsBaromVisibWave heightAir tempDewpointWater temp
2019-Aug-24 06:29N 54°31' E 018°33'0 0.0
2019-Aug-24 05:59N 54°31' E 018°33'0 0.0
2019-Aug-24 05:29N 54°31' E 018°33'0 0.0
2019-Aug-24 04:59N 54°31' E 018°33'1 1.6
2019-Aug-24 04:30N 54°31' E 018°34'0 0.7
2019-Aug-24 03:56N 54°31' E 018°35'0 0.0
2019-Aug-24 03:29N 54°31' E 018°35'0 0.0
2019-Aug-24 02:59N 54°31' E 018°35'0 0.0
2019-Aug-24 02:29N 54°31' E 018°35'0 0.0
2019-Aug-24 01:59N 54°31' E 018°35'0 0.0
2019-Aug-24 01:29N 54°31' E 018°35'0 0.0
2019-Aug-24 00:59N 54°31' E 018°35'0 0.0
2019-Aug-24 00:29N 54°31' E 018°35'0 0.0
2019-Aug-23 23:59N 54°31' E 018°35'0 0.0
2019-Aug-23 23:29N 54°31' E 018°35'2 3.7
2019-Aug-23 23:00N 54°32' E 018°38'3 5.6
2019-Aug-23 22:30N 54°33' E 018°42'3 5.9
2019-Aug-23 22:00N 54°33' E 018°47'3 5.6
2019-Aug-23 21:30N 54°35' E 018°51'3 5.2
2019-Aug-23 21:00N 54°37' E 018°53'3 5.3
2019-Aug-23 20:30N 54°39' E 018°51'3 5.2
2019-Aug-23 20:00N 54°42' E 018°48'3 5.2
2019-Aug-23 19:30N 54°44' E 018°46'2 4.8
2019-Aug-23 19:00N 54°46' E 018°43'2 4.2
2019-Aug-23 18:30N 54°47' E 018°41'2 4.1
2019-Aug-23 18:00N 54°49' E 018°39'2 4.1
2019-Aug-23 17:30N 54°51' E 018°37'2 4.3
2019-Aug-23 17:00N 54°52' E 018°34'2 5.0
2019-Aug-23 16:30N 54°54' E 018°31'0 0.8
2019-Aug-23 15:59N 54°54' E 018°30'0 0.7
2019-Aug-23 15:29N 54°54' E 018°31'1 1.6
2019-Aug-23 14:59N 54°55' E 018°32'1 1.9
2019-Aug-23 14:30N 54°55' E 018°33'1 2.1
2019-Aug-23 13:59N 54°56' E 018°35'3 2.6
2019-Aug-23 12:43N 54°58' E 018°39'1 3.1
2019-Aug-23 12:28N 54°59' E 018°40'2 3.3
2019-Aug-23 12:00N 54°60' E 018°42'2 3.3
2019-Aug-23 11:30N 55°01' E 018°44'2 3.4
2019-Aug-23 11:00N 55°02' E 018°47'2 3.2
2019-Aug-23 10:27N 55°02' E 018°50'87 4.6
2019-Aug-22 15:19N 55°44' E 021°05'2 5.5
2019-Aug-22 15:00N 55°43' E 021°07'0 0.6
2019-Aug-22 14:29N 55°42' E 021°07'0 0.0
2019-Aug-22 13:59N 55°42' E 021°07'0 0.0
2019-Aug-22 13:29N 55°42' E 021°07'0 0.0
2019-Aug-22 12:59N 55°42' E 021°07'0 0.0
2019-Aug-22 12:29N 55°42' E 021°07'0 0.0
2019-Aug-22 11:59N 55°42' E 021°07'0 0.0
2019-Aug-22 11:29N 55°42' E 021°07'0 0.0
2019-Aug-22 10:56N 55°42' E 021°07'0 0.0
2019-Aug-22 10:29N 55°42' E 021°07'0 0.0
2019-Aug-22 09:59N 55°42' E 021°07'0 0.0
2019-Aug-22 09:29N 55°42' E 021°07'0 0.0
2019-Aug-22 08:59N 55°42' E 021°07'0 0.0
2019-Aug-22 08:29N 55°42' E 021°07'0 0.0
2019-Aug-22 07:59N 55°42' E 021°07'0 0.0
2019-Aug-22 07:29N 55°42' E 021°07'0 0.0
2019-Aug-22 06:59N 55°42' E 021°07'0 0.0
2019-Aug-22 06:29N 55°42' E 021°07'0 0.0
2019-Aug-22 05:59N 55°42' E 021°07'0 0.0
2019-Aug-22 05:29N 55°42' E 021°07'0 0.0
2019-Aug-22 04:59N 55°42' E 021°07'0 0.0
2019-Aug-22 04:29N 55°42' E 021°07'0 0.0
2019-Aug-22 03:59N 55°42' E 021°07'0 0.0
2019-Aug-22 03:29N 55°42' E 021°07'0 0.0
2019-Aug-22 02:53N 55°42' E 021°07'0 0.0
2019-Aug-22 02:29N 55°42' E 021°07'0 0.0
2019-Aug-22 01:59N 55°42' E 021°07'0 0.0
2019-Aug-22 01:29N 55°42' E 021°07'0 0.0
2019-Aug-22 00:59N 55°42' E 021°07'0 0.0
2019-Aug-22 00:29N 55°42' E 021°07'0 0.0
2019-Aug-21 23:56N 55°42' E 021°07'0 0.0
2019-Aug-21 23:26N 55°42' E 021°07'0 0.0
2019-Aug-21 22:59N 55°42' E 021°07'0 0.0
2019-Aug-21 22:29N 55°42' E 021°07'0 0.0
2019-Aug-21 21:59N 55°42' E 021°07'0 0.0
2019-Aug-21 21:29N 55°42' E 021°07'0 0.0
2019-Aug-21 20:59N 55°42' E 021°07'0 0.0
2019-Aug-21 20:29N 55°42' E 021°07'0 0.0
2019-Aug-21 19:59N 55°42' E 021°07'0 0.0
2019-Aug-21 19:29N 55°42' E 021°07'0 0.0
2019-Aug-21 18:59N 55°42' E 021°07'0 0.0
2019-Aug-21 18:29N 55°42' E 021°07'0 0.0
2019-Aug-21 17:59N 55°42' E 021°07'0 0.0
2019-Aug-21 17:20N 55°42' E 021°07'0 0.0
2019-Aug-21 16:59N 55°42' E 021°07'0 0.0
2019-Aug-21 16:29N 55°42' E 021°07'0 0.0
2019-Aug-21 15:58N 55°42' E 021°07'0 0.0
2019-Aug-21 15:28N 55°42' E 021°07'2 2.8
2019-Aug-21 14:56N 55°43' E 021°06'3 6.3
2019-Aug-21 14:30N 55°44' E 021°01'  

Dump ship's entire track history